Terminal Aerodrome Forecast
Issued by NWS Twin Cities, MN

Home | Current Version | Previous Version | Text Only | Print | Product List | Glossary Off
Versions: 1 2 3 4 5 6 7 8 9 10 11 12 13

949
FTUS43 KMPX 260520
TAFSTC
TAF
KSTC 260520Z 2606/2706 20005KT P6SM BKN250
     FM261200 25008KT P6SM BKN200
     FM261400 32015G24KT P6SM BKN070
     FM261800 33016G25KT P6SM SKC
     FM270200 30006KT P6SM SKC=

USA.gov is the U.S. government's official web portal to all federal, state and local government web resources and services.